Time;durP1;ratioP1;P1;durP2;ratioP2;P2;SDS_P1;SDS_P2;PMS_P1;PMS_P2;Temp;Humidity;BMP_temperature;BMP_pressure;BME280_temperature;BME280_humidity;BME280_pressure;Samples;Min_cycle;Max_cycle;Signal;HPM_P1;HPM_P2
2022/05/02 00:00:14;;;;;;;6.85;6.03;;;6.60;99.90;;;;;;4987773;28;20057;-74
2022/05/02 00:02:43;;;;;;;6.20;5.60;;;6.50;99.90;;;;;;4986364;28;20054;-74
2022/05/02 00:05:12;;;;;;;7.50;5.45;;;6.20;99.90;;;;;;4990731;28;20034;-74
2022/05/02 00:07:37;;;;;;;;;;;6.10;99.90;;;;;;4983087;28;20445;-74
2022/05/02 00:10:04;;;;;;;5.43;4.93;;;6.20;99.90;;;;;;4984830;28;19917;-73
2022/05/02 00:12:30;;;;;;;7.82;5.95;;;6.20;99.90;;;;;;4986952;28;21541;-74
2022/05/02 00:14:56;;;;;;;7.25;5.80;;;6.20;99.90;;;;;;4983896;28;20110;-73
2022/05/02 00:17:56;;;;;;;7.50;5.90;;;6.20;99.90;;;;;;4986408;28;20524;-74
2022/05/02 00:20:08;;;;;;;7.97;6.50;;;6.20;99.90;;;;;;4983778;28;20038;-74
2022/05/02 00:22:33;;;;;;;8.75;6.25;;;6.20;99.90;;;;;;4992830;28;20046;-74
2022/05/02 00:24:59;;;;;;;10.43;7.20;;;6.30;99.90;;;;;;4986646;28;20366;-74
2022/05/02 00:27:25;;;;;;;8.25;6.15;;;6.30;99.90;;;;;;4988501;28;20041;-74
2022/05/02 00:29:50;;;;;;;8.77;6.70;;;6.30;99.90;;;;;;4993100;28;20030;-73
2022/05/02 00:32:16;;;;;;;10.82;6.00;;;6.30;99.90;;;;;;4988047;28;20456;-73
2022/05/02 00:34:41;;;;;;;8.50;6.50;;;6.20;99.90;;;;;;4990684;28;20491;-74
2022/05/02 00:37:07;;;;;;;8.57;6.53;;;6.20;99.90;;;;;;4984411;28;20041;-73
2022/05/02 00:39:33;;;;;;;8.85;5.95;;;6.20;99.90;;;;;;4988311;28;20076;-74
2022/05/02 00:41:59;;;;;;;6.75;5.75;;;6.20;99.90;;;;;;4987607;28;20125;-74
2022/05/02 00:44:24;;;;;;;10.77;6.18;;;6.20;99.90;;;;;;4991447;28;20133;-74
2022/05/02 00:46:50;;;;;;;8.82;5.68;;;6.10;99.90;;;;;;4987829;28;20031;-74
2022/05/02 00:49:16;;;;;;;8.07;6.68;;;6.20;99.90;;;;;;5008774;28;20039;-74
2022/05/02 00:51:42;;;;;;;8.02;6.47;;;6.10;99.90;;;;;;4988203;28;20042;-74
2022/05/02 00:54:07;;;;;;;7.63;5.85;;;6.10;99.90;;;;;;4991496;28;20112;-74
2022/05/02 00:56:34;;;;;;;10.57;6.65;;;6.10;99.90;;;;;;5018516;28;20053;-74
2022/05/02 00:59:00;;;;;;;8.73;6.93;;;6.00;99.90;;;;;;4988948;28;20045;-74
2022/05/02 01:01:29;;;;;;;8.00;6.10;;;6.00;99.90;;;;;;4986301;28;20051;-75
2022/05/02 01:03:55;;;;;;;9.35;6.53;;;5.90;99.90;;;;;;4981419;28;20049;-74
2022/05/02 01:09:06;;;;;;;11.13;7.03;;;5.70;99.90;;;;;;5017037;28;20046;-74
2022/05/02 01:11:31;;;;;;;8.73;6.95;;;5.60;99.90;;;;;;4991822;28;20398;-74
2022/05/02 01:13:57;;;;;;;8.45;6.07;;;5.30;99.90;;;;;;4988139;28;20034;-74
2022/05/02 01:16:25;;;;;;;7.13;5.22;;;4.90;99.90;;;;;;4988473;28;20101;-74
2022/05/02 01:18:53;;;;;;;5.50;5.00;;;4.80;99.90;;;;;;4990300;28;20092;-74
2022/05/02 01:21:25;;;;;;;5.70;4.88;;;4.80;99.90;;;;;;4989095;28;20038;-75
2022/05/02 01:23:54;;;;;;;7.03;5.15;;;4.70;99.90;;;;;;4991063;28;20030;-74
2022/05/02 01:26:20;;;;;;;7.13;6.00;;;4.90;99.90;;;;;;4989780;28;20042;-74
2022/05/02 01:28:48;;;;;;;9.63;5.90;;;5.00;99.90;;;;;;4990340;28;20378;-74
2022/05/02 01:31:15;;;;;;;8.88;6.05;;;5.10;99.90;;;;;;4988328;28;20129;-74
2022/05/02 01:33:42;;;;;;;10.00;6.53;;;5.20;99.90;;;;;;4996944;28;20042;-75
2022/05/02 01:36:08;;;;;;;9.30;6.30;;;5.20;99.90;;;;;;4992333;28;20030;-74
2022/05/02 01:38:34;;;;;;;8.27;6.22;;;5.10;99.90;;;;;;4988195;28;20030;-74
2022/05/02 01:41:00;;;;;;;7.45;6.22;;;5.00;99.90;;;;;;4986701;28;20153;-74
2022/05/02 01:43:27;;;;;;;8.68;5.70;;;5.10;99.90;;;;;;4989449;28;20125;-73
2022/05/02 01:45:54;;;;;;;5.95;5.35;;;5.00;99.90;;;;;;4989592;28;20018;-73
2022/05/02 01:48:19;;;;;;;7.97;6.35;;;4.80;99.90;;;;;;4986063;28;20030;-73
2022/05/02 01:50:45;;;;;;;9.77;6.43;;;4.60;99.90;;;;;;4983480;28;20065;-73
2022/05/02 01:53:11;;;;;;;7.72;6.13;;;4.40;99.90;;;;;;4987928;28;20062;-73
2022/05/02 01:55:36;;;;;;;8.65;5.30;;;4.50;99.90;;;;;;4994512;28;20049;-74
2022/05/02 01:58:02;;;;;;;6.47;5.20;;;4.60;99.90;;;;;;4996193;28;20038;-74
2022/05/02 02:00:27;;;;;;;8.75;5.75;;;4.50;99.90;;;;;;4990846;28;20018;-74
2022/05/02 02:02:53;;;;;;;7.72;6.13;;;4.60;99.90;;;;;;4990926;28;20034;-74
2022/05/02 02:08:04;;;;;;;7.15;5.25;;;4.70;99.90;;;;;;4983700;28;20532;-74
2022/05/02 02:10:29;;;;;;;6.47;5.13;;;4.70;99.90;;;;;;4989591;28;20053;-74
2022/05/02 02:12:55;;;;;;;7.05;5.95;;;4.60;99.90;;;;;;4984421;28;20034;-74
2022/05/02 02:15:21;;;;;;;7.65;5.63;;;4.50;99.90;;;;;;4985147;28;20034;-74
2022/05/02 02:17:46;;;;;;;6.97;5.80;;;4.60;99.90;;;;;;4986427;28;20141;-74
2022/05/02 02:20:12;;;;;;;7.93;5.68;;;4.60;99.90;;;;;;4984596;28;20038;-74
2022/05/02 02:22:40;;;;;;;9.60;6.78;;;4.70;99.90;;;;;;4989808;28;20643;-73
2022/05/02 02:25:06;;;;;;;9.38;7.18;;;4.60;99.90;;;;;;4992102;28;20030;-73
2022/05/02 02:27:32;;;;;;;9.55;6.75;;;4.40;99.90;;;;;;4991188;28;20030;-73
2022/05/02 02:29:59;;;;;;;11.10;7.10;;;4.40;99.90;;;;;;4992467;28;20091;-73
2022/05/02 02:32:25;;;;;;;8.15;6.55;;;4.50;99.90;;;;;;4987224;28;20046;-73
2022/05/02 02:34:50;;;;;;;8.55;6.30;;;4.60;99.90;;;;;;4990464;28;20041;-73
2022/05/02 02:37:16;;;;;;;9.90;7.07;;;4.50;99.90;;;;;;4980614;28;20023;-73
2022/05/02 02:39:43;;;;;;;7.93;5.93;;;4.40;99.90;;;;;;4989088;28;20480;-74
2022/05/02 02:42:09;;;;;;;6.55;5.07;;;4.30;99.90;;;;;;4987950;28;20050;-73
2022/05/02 02:44:35;;;;;;;5.75;5.05;;;4.10;99.90;;;;;;4987891;28;20034;-74
2022/05/02 02:47:01;;;;;;;6.45;4.35;;;3.80;99.90;;;;;;4989165;28;20057;-74
2022/05/02 02:49:27;;;;;;;14.82;4.82;;;3.60;99.90;;;;;;4984539;28;20457;-74
2022/05/02 02:51:52;;;;;;;5.25;4.75;;;3.60;99.90;;;;;;4990222;28;20113;-74
2022/05/02 02:54:18;;;;;;;5.95;4.93;;;3.50;99.90;;;;;;4997066;28;20065;-73
2022/05/02 02:56:44;;;;;;;6.93;5.03;;;3.70;99.90;;;;;;4986810;28;20031;-73
2022/05/02 02:59:10;;;;;;;7.45;5.03;;;3.70;99.90;;;;;;4985728;28;20442;-74
2022/05/02 03:01:36;;;;;;;7.20;5.45;;;3.80;99.90;;;;;;4989904;28;20528;-74
2022/05/02 03:06:01;;;;;;;6.85;5.70;;;3.80;99.90;;;;;;5004049;28;20117;-73
2022/05/02 03:06:48;;;;;;;8.13;5.35;;;3.90;99.90;;;;;;4988075;28;20826;-74
2022/05/02 03:09:13;;;;;;;6.93;5.47;;;4.00;99.90;;;;;;4988469;28;20037;-73
2022/05/02 03:11:39;;;;;;;6.13;4.93;;;4.00;99.90;;;;;;4978829;28;20371;-73
2022/05/02 03:14:05;;;;;;;7.20;5.78;;;3.90;99.90;;;;;;4985213;28;20038;-73
2022/05/02 03:16:31;;;;;;;8.02;6.05;;;3.60;99.90;;;;;;4991982;28;20030;-74
2022/05/02 03:18:56;;;;;;;7.28;6.57;;;3.70;99.90;;;;;;4986681;28;20038;-73
2022/05/02 03:21:22;;;;;;;7.82;6.07;;;3.80;99.90;;;;;;4985741;28;20030;-73
2022/05/02 03:23:58;;;;;;;8.52;6.10;;;3.70;99.90;;;;;;4994728;28;20037;-73
2022/05/02 03:26:23;;;;;;;9.48;7.13;;;3.70;99.90;;;;;;4988245;28;20546;-74
2022/05/02 03:28:49;;;;;;;8.98;6.78;;;3.70;99.90;;;;;;4988822;28;20030;-74
2022/05/02 03:31:15;;;;;;;10.02;7.05;;;3.70;99.90;;;;;;4985513;28;20058;-74
2022/05/02 03:33:41;;;;;;;7.18;5.63;;;3.80;99.90;;;;;;4988109;28;20439;-73
2022/05/02 03:36:07;;;;;;;6.55;5.85;;;3.90;99.90;;;;;;4988140;28;20030;-73
2022/05/02 03:38:32;;;;;;;9.32;6.07;;;3.80;99.90;;;;;;4986848;28;20465;-73
2022/05/02 03:40:58;;;;;;;10.05;7.20;;;3.80;99.90;;;;;;4991674;28;20374;-74
2022/05/02 03:43:24;;;;;;;12.57;7.18;;;3.70;99.90;;;;;;4986883;28;20133;-74
2022/05/02 03:45:49;;;;;;;9.30;6.50;;;3.60;99.90;;;;;;4989052;28;20898;-74
2022/05/02 03:48:15;;;;;;;10.65;6.93;;;3.50;99.90;;;;;;4989345;28;20034;-74
2022/05/02 03:50:41;;;;;;;8.95;6.60;;;3.30;99.90;;;;;;4993606;28;20038;-73
2022/05/02 03:53:08;;;;;;;10.00;6.82;;;3.20;99.90;;;;;;4992194;28;20109;-73
2022/05/02 03:55:34;;;;;;;8.13;6.60;;;3.30;99.90;;;;;;4987405;28;20038;-74
2022/05/02 03:58:02;;;;;;;8.32;6.10;;;3.40;99.90;;;;;;4995749;28;20066;-73
2022/05/02 04:00:27;;;;;;;10.13;7.37;;;3.50;99.90;;;;;;4985893;28;20033;-73
2022/05/02 04:02:53;;;;;;;9.88;6.43;;;3.40;99.90;;;;;;4986477;28;20034;-73
2022/05/02 04:05:19;;;;;;;12.02;6.88;;;3.20;99.90;;;;;;4985509;28;20054;-74
2022/05/02 04:07:44;;;;;;;10.43;6.50;;;3.10;99.90;;;;;;4984515;28;20030;-73
2022/05/02 04:10:10;;;;;;;8.48;6.65;;;3.00;99.90;;;;;;4993619;28;20038;-75
2022/05/02 04:12:37;;;;;;;8.40;5.85;;;3.10;99.90;;;;;;4982301;28;21885;-74
2022/05/02 04:15:05;;;;;;;6.90;5.32;;;3.20;99.90;;;;;;4987025;28;20380;-73
2022/05/02 04:17:31;;;;;;;6.47;5.85;;;3.30;99.90;;;;;;4987199;28;20034;-74
2022/05/02 04:19:57;;;;;;;11.70;5.45;;;3.40;99.90;;;;;;4990668;28;20525;-74
2022/05/02 04:22:22;;;;;;;5.43;4.85;;;3.30;99.90;;;;;;4989205;28;20402;-74
2022/05/02 04:24:48;;;;;;;6.80;5.40;;;3.00;99.90;;;;;;4995825;28;20081;-74
2022/05/02 04:27:20;;;;;;;6.22;5.53;;;2.80;99.90;;;;;;4985195;28;20053;-73
2022/05/02 04:29:46;;;;;;;11.55;5.72;;;2.80;99.90;;;;;;4984467;28;20418;-74
2022/05/02 04:32:12;;;;;;;9.13;6.65;;;2.90;99.90;;;;;;4989162;28;20080;-74
2022/05/02 04:34:38;;;;;;;11.05;7.30;;;3.10;99.90;;;;;;4986398;28;20417;-74
2022/05/02 04:37:04;;;;;;;9.85;5.90;;;3.20;99.90;;;;;;4984026;28;20030;-74
2022/05/02 04:39:30;;;;;;;12.65;7.25;;;3.30;99.90;;;;;;4989152;28;20031;-74
2022/05/02 04:41:58;;;;;;;9.65;6.43;;;3.40;99.90;;;;;;4989548;28;20108;-74
2022/05/02 04:44:24;;;;;;;9.65;6.60;;;3.40;99.90;;;;;;4986781;28;20034;-75
2022/05/02 04:46:50;;;;;;;11.18;7.35;;;3.50;99.90;;;;;;4988849;28;20366;-73
2022/05/02 04:49:16;;;;;;;8.85;6.68;;;3.60;99.90;;;;;;4989736;28;20121;-74
2022/05/02 04:51:41;;;;;;;9.27;6.00;;;3.60;99.90;;;;;;4994314;28;20038;-73
2022/05/02 04:54:07;;;;;;;9.68;7.00;;;3.60;99.90;;;;;;4993180;28;20057;-74
2022/05/02 04:56:32;;;;;;;8.40;6.65;;;3.70;99.90;;;;;;4992647;28;20026;-74
2022/05/02 04:58:58;;;;;;;9.85;7.10;;;3.60;99.90;;;;;;4995786;28;20045;-74
2022/05/02 05:01:25;;;;;;;10.35;7.10;;;3.60;99.90;;;;;;4987183;28;20138;-74
2022/05/02 05:03:50;;;;;;;10.30;7.90;;;3.60;99.90;;;;;;4988288;28;20038;-74
2022/05/02 05:06:17;;;;;;;9.52;6.95;;;3.50;99.90;;;;;;4993903;28;20034;-73
2022/05/02 05:08:43;;;;;;;10.20;6.57;;;3.50;99.90;;;;;;4993313;28;20461;-74
2022/05/02 05:11:49;;;;;;;8.68;6.93;;;3.60;99.90;;;;;;4991723;28;20072;-74
2022/05/02 05:17:40;;;;;;;8.10;6.75;;;3.70;99.90;;;;;;4987663;28;20068;-74
2022/05/02 05:20:26;;;;;;;8.85;6.47;;;3.80;99.90;;;;;;4990615;28;20030;-74
2022/05/02 05:23:33;;;;;;;7.97;6.50;;;3.70;99.90;;;;;;4990799;28;20475;-74
2022/05/02 05:26:24;;;;;;;7.35;6.40;;;3.80;99.90;;;;;;4991373;28;20099;-73
2022/05/02 05:29:01;;;;;;;8.75;6.45;;;3.90;99.90;;;;;;4991749;28;20101;-74
2022/05/02 05:31:40;;;;;;;10.52;6.88;;;4.00;99.90;;;;;;4999825;28;20500;-74
2022/05/02 05:34:39;;;;;;;11.55;7.43;;;4.20;99.90;;;;;;5017157;28;20072;-74
2022/05/02 05:37:35;;;;;;;15.95;10.00;;;4.20;99.90;;;;;;4998456;28;20284;-73
2022/05/02 05:40:31;;;;;;;15.90;8.98;;;4.30;99.90;;;;;;4992834;28;20061;-74
2022/05/02 05:43:16;;;;;;;14.65;8.18;;;4.50;99.90;;;;;;5011713;28;20075;-74
2022/05/02 05:46:19;;;;;;;13.93;8.65;;;4.70;99.90;;;;;;4984490;28;20387;-75
2022/05/02 05:49:00;;;;;;;15.82;9.10;;;4.80;99.90;;;;;;4995441;28;20548;-74
2022/05/02 05:51:42;;;;;;;12.75;8.05;;;5.00;99.90;;;;;;4985367;28;20069;-74
2022/05/02 05:54:46;;;;;;;15.50;9.07;;;5.10;99.90;;;;;;4994926;28;20042;-74
2022/05/02 05:57:41;;;;;;;14.27;9.30;;;5.30;99.90;;;;;;4993134;28;20628;-74
2022/05/02 06:00:12;;;;;;;18.63;10.60;;;5.60;99.90;;;;;;4988695;28;20023;-75
2022/05/02 06:02:56;;;;;;;19.60;10.88;;;5.80;99.90;;;;;;4985738;28;20145;-74
2022/05/02 06:05:23;;;;;;;21.42;11.80;;;6.00;99.90;;;;;;4992087;28;20038;-74
2022/05/02 06:07:51;;;;;;;17.30;10.63;;;6.10;99.90;;;;;;4991381;28;20073;-74
2022/05/02 06:10:18;;;;;;;18.77;11.45;;;6.10;99.90;;;;;;4989086;28;20730;-74
2022/05/02 06:12:45;;;;;;;19.70;11.13;;;6.30;99.90;;;;;;4996861;28;20034;-75
2022/05/02 06:18:45;;;;;;;22.55;13.40;;;6.70;99.90;;;;;;4991659;28;20045;-74
2022/05/02 06:20:45;;;;;;;19.95;12.07;;;7.00;99.90;;;;;;4982447;28;20096;-74
2022/05/02 06:23:16;;;;;;;21.52;13.07;;;7.20;99.90;;;;;;4991980;28;20073;-74
2022/05/02 06:25:48;;;;;;;21.92;11.98;;;7.40;99.90;;;;;;4991584;28;20159;-73
2022/05/02 06:28:16;;;;;;;20.85;13.02;;;7.60;99.90;;;;;;5003007;28;20029;-74
2022/05/02 06:30:43;;;;;;;22.35;13.02;;;7.60;99.90;;;;;;4979747;28;20109;-74
2022/05/02 06:33:14;;;;;;;22.25;13.75;;;7.90;99.90;;;;;;4997561;28;20041;-75
2022/05/02 06:35:56;;;;;;;21.55;12.32;;;7.90;99.90;;;;;;4987344;28;20874;-74
2022/05/02 06:38:57;;;;;;;21.70;12.20;;;8.00;99.90;;;;;;4990805;28;20113;-74
2022/05/02 06:41:28;;;;;;;20.05;13.35;;;8.20;99.90;;;;;;5002872;28;20088;-75
2022/05/02 06:44:05;;;;;;;24.02;14.02;;;8.50;99.90;;;;;;4990201;28;20395;-76
2022/05/02 06:46:48;;;;;;;24.17;14.30;;;8.70;99.90;;;;;;4987826;28;20026;-75
2022/05/02 06:49:16;;;;;;;24.80;14.55;;;9.10;99.90;;;;;;4991446;28;20038;-74
2022/05/02 06:51:49;;;;;;;24.20;14.45;;;9.20;99.90;;;;;;4987793;28;20022;-74
2022/05/02 06:54:53;;;;;;;25.02;14.73;;;9.50;99.90;;;;;;4986274;28;20050;-75
2022/05/02 06:57:40;;;;;;;28.58;16.63;;;9.60;99.90;;;;;;4989135;28;20030;-74
2022/05/02 07:00:15;;;;;;;26.83;16.42;;;9.70;99.90;;;;;;4993080;28;20057;-74
2022/05/02 07:03:06;;;;;;;33.90;15.70;;;9.70;99.90;;;;;;4991689;28;20042;-74
2022/05/02 07:05:54;;;;;;;28.25;15.48;;;9.90;99.90;;;;;;5007937;28;20065;-74
2022/05/02 07:08:32;;;;;;;31.95;18.15;;;9.90;99.90;;;;;;4990260;28;20033;-74
2022/05/02 07:11:05;;;;;;;31.85;18.10;;;10.00;99.90;;;;;;4988437;28;20030;-74
2022/05/02 07:14:10;;;;;;;35.50;18.70;;;10.20;99.90;;;;;;4991367;28;20033;-74
2022/05/02 07:16:46;;;;;;;34.03;18.65;;;10.50;99.90;;;;;;4989808;28;20054;-74
2022/05/02 07:19:30;;;;;;;37.15;19.27;;;10.80;99.90;;;;;;4991448;28;20608;-74
2022/05/02 07:22:00;;;;;;;37.58;19.75;;;11.00;99.90;;;;;;5005532;28;20079;-74
2022/05/02 07:24:42;;;;;;;44.88;22.38;;;11.00;99.90;;;;;;4990733;28;20034;-74
2022/05/02 07:27:27;;;;;;;42.63;21.58;;;11.20;99.90;;;;;;4994553;28;20583;-75
2022/05/02 07:29:57;;;;;;;47.08;23.33;;;11.20;99.90;;;;;;5008369;28;20037;-75
2022/05/02 07:32:24;;;;;;;45.60;23.38;;;11.30;99.90;;;;;;4988277;28;20117;-75
2022/05/02 07:34:52;;;;;;;45.63;23.17;;;11.30;99.90;;;;;;4993097;28;20079;-75
2022/05/02 07:37:22;;;;;;;45.60;21.60;;;11.40;99.90;;;;;;4988919;28;20038;-75
2022/05/02 07:39:49;;;;;;;38.20;20.05;;;11.60;99.90;;;;;;4986785;28;20383;-75
2022/05/02 07:42:16;;;;;;;40.55;21.58;;;11.80;99.90;;;;;;4987995;28;20030;-75
2022/05/02 07:44:44;;;;;;;42.75;22.80;;;11.70;99.90;;;;;;4993516;28;20589;-76
2022/05/02 07:47:13;;;;;;;38.10;19.80;;;11.80;99.90;;;;;;4992059;28;20051;-75
2022/05/02 07:49:43;;;;;;;40.55;21.15;;;11.80;99.90;;;;;;5004410;28;20643;-75
2022/05/02 07:52:12;;;;;;;37.30;21.15;;;11.70;99.90;;;;;;4993536;28;20034;-74
2022/05/02 07:54:43;;;;;;;34.38;20.85;;;11.80;99.90;;;;;;4984201;28;20050;-75
2022/05/02 07:57:11;;;;;;;35.65;20.88;;;11.80;99.90;;;;;;5002319;28;20036;-75
2022/05/02 07:59:40;;;;;;;35.17;19.95;;;11.80;99.90;;;;;;4989530;28;20035;-74
2022/05/02 08:02:07;;;;;;;33.30;19.30;;;11.90;99.90;;;;;;4990658;28;20035;-74
2022/05/02 08:04:41;;;;;;;38.45;21.63;;;12.00;99.90;;;;;;4991945;28;20040;-74
2022/05/02 08:07:14;;;;;;;32.92;18.75;;;12.10;99.90;;;;;;4988930;28;20036;-76
2022/05/02 08:10:12;;;;;;;34.08;19.27;;;12.30;99.90;;;;;;4987898;28;20065;-74
2022/05/02 08:12:51;;;;;;;32.40;19.77;;;12.30;99.90;;;;;;4995801;28;20097;-74
2022/05/02 08:15:40;;;;;;;34.75;19.67;;;12.40;99.90;;;;;;4992165;28;20070;-75
2022/05/02 08:18:32;;;;;;;33.70;19.40;;;12.70;99.90;;;;;;4989371;28;20037;-74
2022/05/02 08:21:10;;;;;;;32.35;19.65;;;12.70;99.90;;;;;;4988048;28;21992;-74
2022/05/02 08:27:15;;;;;;;30.77;19.48;;;12.70;99.90;;;;;;4987597;28;20053;-74
2022/05/02 08:30:05;;;;;;;36.35;20.00;;;13.00;99.90;;;;;;4988438;28;20448;-75
2022/05/02 08:32:42;;;;;;;32.10;18.30;;;13.10;99.90;;;;;;5006692;28;20042;-75
2022/05/02 08:35:16;;;;;;;28.25;17.45;;;13.40;99.90;;;;;;4990620;28;20046;-74
2022/05/02 08:38:07;;;;;;;32.17;19.35;;;13.40;99.90;;;;;;4991577;28;20030;-74
2022/05/02 08:41:01;;;;;;;28.50;17.63;;;13.50;99.90;;;;;;4989531;28;20430;-75
2022/05/02 08:43:48;;;;;;;28.80;18.08;;;13.40;99.90;;;;;;4992033;28;20886;-75
2022/05/02 08:46:20;;;;;;;27.73;17.02;;;13.50;99.90;;;;;;4990561;28;20030;-75
2022/05/02 08:52:23;;;;;;;31.75;18.25;;;13.70;99.90;;;;;;4986928;28;20041;-74
2022/05/02 08:55:26;;;;;;;30.95;17.90;;;13.30;99.90;;;;;;5001178;28;20493;-74
2022/05/02 08:58:16;;;;;;;30.52;17.63;;;13.20;99.90;;;;;;5007274;28;20508;-74
2022/05/02 09:01:07;;;;;;;28.58;17.42;;;13.30;99.90;;;;;;4989399;28;20022;-75
2022/05/02 09:04:11;;;;;;;30.23;17.88;;;13.40;99.90;;;;;;4991997;28;20053;-75
2022/05/02 09:07:13;;;;;;;27.20;16.38;;;13.60;99.90;;;;;;4949229;28;20070;-75
2022/05/02 09:10:13;;;;;;;24.38;16.23;;;13.80;99.90;;;;;;4989930;28;20035;-75
2022/05/02 09:13:09;;;;;;;29.13;16.80;;;14.00;99.90;;;;;;5003872;28;20364;-75
2022/05/02 09:15:47;;;;;;;27.30;17.17;;;14.20;99.90;;;;;;4993929;28;20030;-75
2022/05/02 09:18:44;;;;;;;26.40;16.05;;;14.30;99.90;;;;;;5004981;28;20072;-75
2022/05/02 09:21:41;;;;;;;22.87;13.77;;;14.40;99.90;;;;;;5006593;28;20104;-74
2022/05/02 09:24:55;;;;;;;23.20;14.13;;;14.50;99.90;;;;;;4990828;28;20022;-75
2022/05/02 09:28:09;;;;;;;19.52;12.30;;;14.50;99.90;;;;;;4996359;28;20081;-74
2022/05/02 09:30:50;;;;;;;22.83;13.90;;;14.70;99.90;;;;;;4988943;28;20180;-75
2022/05/02 09:33:35;;;;;;;26.20;15.90;;;15.00;99.90;;;;;;5005831;28;20168;-75
2022/05/02 09:36:25;;;;;;;25.95;15.80;;;15.20;99.90;;;;;;4989553;28;20042;-75
2022/05/02 09:39:13;;;;;;;20.73;13.50;;;15.50;99.90;;;;;;4989711;28;20038;-74
2022/05/02 09:42:13;;;;;;;18.85;13.35;;;15.40;99.90;;;;;;4986030;28;20038;-75
2022/05/02 09:51:34;;;;;;;18.48;12.15;;;15.10;99.90;;;;;;4988673;28;20076;-75
2022/05/02 09:56:37;;;;;;;18.02;12.02;;;15.00;99.90;;;;;;4987608;28;20137;-75
2022/05/02 09:57:30;;;;;;;14.93;11.10;;;15.00;99.90;;;;;;4991659;28;20065;-74
2022/05/02 10:02:48;;;;;;;19.25;12.38;;;14.90;99.90;;;;;;4982798;28;20509;-75
2022/05/02 10:05:25;;;;;;;16.05;11.13;;;15.30;99.90;;;;;;4986727;28;20035;-75
2022/05/02 10:08:03;;;;;;;16.25;11.48;;;15.50;99.50;;;;;;4992645;28;20313;-75
2022/05/02 10:10:45;;;;;;;18.17;12.25;;;15.50;99.90;;;;;;4987543;28;20064;-75
2022/05/02 10:13:20;;;;;;;15.20;10.55;;;15.50;99.90;;;;;;4987922;28;20038;-75
2022/05/02 10:15:52;;;;;;;15.30;11.05;;;15.60;95.70;;;;;;5003793;28;20034;-75
2022/05/02 10:18:17;;;;;;;14.60;11.30;;;15.30;99.90;;;;;;5002705;28;20032;-74
2022/05/02 10:21:23;;;;;;;15.95;11.52;;;14.90;99.90;;;;;;4988829;28;20026;-75
2022/05/02 10:24:02;;;;;;;15.23;10.82;;;14.60;99.90;;;;;;5004282;28;20035;-74
2022/05/02 10:26:47;;;;;;;13.00;9.70;;;14.60;99.90;;;;;;4987536;28;20117;-74
2022/05/02 10:29:12;;;;;;;12.15;9.95;;;14.80;97.40;;;;;;4986363;28;20042;-74
2022/05/02 10:31:39;;;;;;;14.38;10.75;;;14.80;96.30;;;;;;4988661;28;20056;-74
2022/05/02 10:34:07;;;;;;;16.15;10.63;;;14.80;98.30;;;;;;4992022;28;20460;-74
2022/05/02 10:36:40;;;;;;;14.60;11.38;;;14.70;98.60;;;;;;4994138;28;20105;-74
2022/05/02 10:39:48;;;;;;;15.02;10.60;;;15.10;99.90;;;;;;4996439;28;20061;-74
2022/05/02 10:42:18;;;;;;;12.23;9.07;;;15.50;93.50;;;;;;5012348;28;20038;-74
2022/05/02 10:44:57;;;;;;;12.18;8.68;;;15.40;93.30;;;;;;4995811;28;20038;-74
2022/05/02 10:47:26;;;;;;;10.13;7.55;;;15.60;92.50;;;;;;5014118;28;20037;-74
2022/05/02 10:50:22;;;;;;;11.68;8.40;;;15.40;96.40;;;;;;4989743;28;20398;-74
2022/05/02 10:53:08;;;;;;;11.68;7.25;;;15.40;89.90;;;;;;4986530;28;20057;-75
2022/05/02 10:55:39;;;;;;;10.95;7.85;;;15.30;93.30;;;;;;4992419;28;20038;-75
2022/05/02 10:58:08;;;;;;;10.63;7.72;;;15.20;91.90;;;;;;4998006;28;20132;-74
2022/05/02 11:00:52;;;;;;;11.20;7.68;;;15.40;91.70;;;;;;4998624;28;20084;-75
2022/05/02 11:03:35;;;;;;;11.80;7.35;;;15.30;91.00;;;;;;4998595;28;20090;-74
2022/05/02 11:06:30;;;;;;;10.50;8.13;;;15.30;94.20;;;;;;4988656;28;20035;-75
2022/05/02 11:09:04;;;;;;;9.88;8.35;;;15.30;94.50;;;;;;4995059;28;20106;-74
2022/05/02 11:11:59;;;;;;;11.68;8.60;;;15.50;95.90;;;;;;4992342;28;20041;-75
2022/05/02 11:14:48;;;;;;;14.88;8.45;;;15.70;94.50;;;;;;4990841;28;20385;-75
2022/05/02 11:17:37;;;;;;;9.45;7.72;;;16.10;94.90;;;;;;4989266;28;20038;-75
2022/05/02 11:20:46;;;;;;;12.13;8.43;;;16.30;97.90;;;;;;5000654;28;20389;-75
2022/05/02 11:23:17;;;;;;;12.02;8.02;;;16.40;94.90;;;;;;4995800;28;20087;-76
2022/05/02 11:26:01;;;;;;;8.70;7.75;;;16.50;92.80;;;;;;4991132;28;20474;-75
2022/05/02 11:28:36;;;;;;;12.35;8.10;;;16.20;92.50;;;;;;4996952;28;20037;-75
2022/05/02 11:31:14;;;;;;;12.18;8.57;;;16.10;92.50;;;;;;4988493;28;20046;-75
2022/05/02 11:34:05;;;;;;;8.60;7.60;;;16.10;94.70;;;;;;4991233;28;20027;-75
2022/05/02 11:36:35;;;;;;;10.35;8.38;;;16.20;98.70;;;;;;4989446;28;20137;-74
2022/05/02 11:39:06;;;;;;;10.65;8.05;;;16.40;94.70;;;;;;4996554;28;20034;-75
2022/05/02 11:41:33;;;;;;;11.05;8.30;;;16.10;94.40;;;;;;4991706;28;20034;-75
2022/05/02 11:44:09;;;;;;;10.20;8.80;;;16.00;95.10;;;;;;4991527;28;20026;-75
2022/05/02 11:46:59;;;;;;;12.15;7.28;;;16.20;94.20;;;;;;4995237;28;20041;-75
2022/05/02 11:49:47;;;;;;;13.85;8.93;;;16.00;94.00;;;;;;4991312;28;20034;-74
2022/05/02 11:52:25;;;;;;;10.68;8.27;;;15.80;96.90;;;;;;4989362;28;20030;-75
2022/05/02 11:54:56;;;;;;;10.48;8.43;;;16.00;94.40;;;;;;4989357;28;20350;-75
2022/05/02 11:57:41;;;;;;;10.43;7.97;;;16.10;95.70;;;;;;5004340;28;20456;-74
2022/05/02 12:00:07;;;;;;;10.73;7.90;;;16.60;90.70;;;;;;4987959;28;20073;-74
2022/05/02 12:02:35;;;;;;;12.25;8.82;;;17.00;96.20;;;;;;4987424;28;20538;-76
2022/05/02 12:05:05;;;;;;;13.07;6.70;;;16.90;94.10;;;;;;4993710;28;20109;-81
2022/05/02 12:07:35;;;;;;;9.45;6.53;;;17.20;79.80;;;;;;4984546;28;20466;-73
2022/05/02 12:10:03;;;;;;;9.60;7.70;;;17.10;71.70;;;;;;4993333;28;20053;-77
2022/05/02 12:12:31;;;;;;;8.18;6.28;;;16.80;79.30;;;;;;4985274;28;20034;-75
2022/05/02 12:15:03;;;;;;;8.27;6.38;;;16.60;82.00;;;;;;4993683;28;20018;-76
2022/05/02 12:17:29;;;;;;;9.40;6.65;;;16.50;76.80;;;;;;4991028;28;20121;-76
2022/05/02 12:19:55;;;;;;;8.98;6.82;;;16.70;81.20;;;;;;4992217;28;20038;-77
2022/05/02 12:22:26;;;;;;;8.20;6.15;;;16.90;73.10;;;;;;4990929;28;20035;-74
2022/05/02 12:24:54;;;;;;;7.13;6.22;;;17.10;83.20;;;;;;4984545;28;20030;-75
2022/05/02 12:27:21;;;;;;;;;;;17.40;85.20;;;;;;4990484;28;20030;-76
2022/05/02 12:29:57;;;;;;;8.00;6.10;;;17.80;73.20;;;;;;4989564;28;19929;-74
2022/05/02 12:32:27;;;;;;;8.73;5.95;;;17.70;69.50;;;;;;4988259;28;20043;-74
2022/05/02 12:34:56;;;;;;;8.20;6.93;;;17.80;64.10;;;;;;4989774;28;20057;-75
2022/05/02 12:37:32;;;;;;;11.90;7.80;;;17.80;67.30;;;;;;4989545;28;20069;-75
2022/05/02 12:40:11;;;;;;;10.85;7.78;;;17.70;80.10;;;;;;4996845;28;20033;-75
2022/05/02 12:42:50;;;;;;;8.43;6.93;;;17.50;83.00;;;;;;4994253;28;20030;-75
2022/05/02 12:45:18;;;;;;;7.85;6.30;;;17.20;90.00;;;;;;4992075;28;20047;-75
2022/05/02 12:47:56;;;;;;;8.75;6.97;;;17.20;81.10;;;;;;4989683;28;20037;-75
2022/05/02 12:50:25;;;;;;;10.05;7.25;;;16.90;88.10;;;;;;4989014;28;20478;-75
2022/05/02 12:52:52;;;;;;;8.73;7.03;;;16.80;83.30;;;;;;4992522;28;20062;-73
2022/05/02 12:55:20;;;;;;;9.52;7.18;;;16.70;92.20;;;;;;4988984;28;20030;-75
2022/05/02 13:00:40;;;;;;;8.93;7.57;;;17.00;80.70;;;;;;4997092;28;20076;-73
2022/05/02 13:03:17;;;;;;;9.27;6.78;;;17.00;81.10;;;;;;4996388;28;20037;-74
2022/05/02 13:05:46;;;;;;;9.60;7.53;;;16.90;76.60;;;;;;4992798;28;20165;-73
2022/05/02 13:08:16;;;;;;;9.25;7.00;;;17.10;88.80;;;;;;4993723;28;20073;-73
2022/05/02 13:10:44;;;;;;;10.25;7.18;;;17.10;82.90;;;;;;4996429;28;20030;-74
2022/05/02 13:13:11;;;;;;;;;;;17.10;80.00;;;;;;4995344;28;20041;-73
2022/05/02 13:15:37;;;;;;;7.07;6.00;;;16.90;73.30;;;;;;4992573;28;19916;-74
2022/05/02 13:18:07;;;;;;;7.78;6.50;;;17.00;79.60;;;;;;5005881;28;20038;-73
2022/05/02 13:20:33;;;;;;;7.35;6.30;;;17.10;73.40;;;;;;4997853;28;20034;-73
2022/05/02 13:23:07;;;;;;;9.50;6.18;;;17.10;68.50;;;;;;4991654;28;20038;-73
2022/05/02 13:26:01;;;;;;;8.00;6.45;;;17.30;74.80;;;;;;4992321;28;20018;-73
2022/05/02 13:28:32;;;;;;;9.18;6.75;;;17.60;73.50;;;;;;4988473;28;20035;-73
2022/05/02 13:31:04;;;;;;;8.52;6.78;;;18.10;75.40;;;;;;4997583;28;20046;-74
2022/05/02 13:33:37;;;;;;;9.50;6.28;;;18.30;66.90;;;;;;4989190;28;20042;-74
2022/05/02 13:36:06;;;;;;;8.73;7.10;;;18.30;79.20;;;;;;5000696;28;20042;-74
2022/05/02 13:38:47;;;;;;;8.15;6.68;;;18.10;87.50;;;;;;4998513;28;20097;-74
2022/05/02 13:41:16;;;;;;;8.43;5.95;;;17.70;72.40;;;;;;5001968;28;20080;-73
2022/05/02 13:44:13;;;;;;;7.07;6.38;;;17.40;90.30;;;;;;4993036;28;20093;-74
2022/05/02 13:46:48;;;;;;;7.55;6.10;;;17.20;90.30;;;;;;4965129;28;20043;-74
2022/05/02 13:49:30;;;;;;;8.15;6.43;;;17.00;81.20;;;;;;4988813;28;20069;-74
2022/05/02 13:52:18;;;;;;;8.98;6.55;;;16.90;77.40;;;;;;4988893;28;20426;-76